Airfield :
LOGIN :

Register | Disclaimer

   EN    FR    IT 

 










Legend :    VFR   Marginal VFR   IFR   Intensive IFR   Very Intensive IFR
Visi :
Ceiling :
>= 8 km
>= 3000ft
5 to 8 km
1000 to 3000 ft
1500m to 5 km
500 to 1000 ft
800 to 1500m
200 to 500 ft
< 800m
< 200 ft
Symbols :   Thunderstorms  Fog  Heavy snow  Heavy precipitations  Wind > 20 kt
SIGMETs :     Misc.  Thunderstorms  Icing  Turbulence  Mountain Waves  Volcanic Ashes






- Airport Elevation : 72 ft
- IATA code : UDE


EHVK - Volkel Airbase

CURRENT METAR :
  • 121257Z AUTO 18010KT 150V230 9999 FEW016 06/03 Q0998 BLU 19012KT 9999 SCT016 BECMG SCT020

EXPIRED METARs :
  • 121255Z AUTO 18011KT 150V220 9999 FEW016 06/03 Q0998 BLU 19012KT 9999 SCT016 BECMG SCT020
  • 121238Z AUTO 19012KT 160V230 9999 SCT013 SCT016 05/02 Q0998 GRN 19012KT 9999 SCT016 BECMG SCT020
  • 121234Z AUTO 19012KT 160V230 9999 FEW013 SCT016 05/03 Q0998 WHT 19012KT 9999 SCT016 BECMG SCT020
  • 121225Z AUTO 19011KT 160V220 9999 SCT014 05/02 Q0998 GRN 21011KT 9999 BKN007 BECMG SCT010
  • 121159Z AUTO 20011KT 160V240 9999 NCD 05/03 Q0999 BLU 21011KT 9999 BKN007 BECMG SCT010
  • 121155Z AUTO 20012KT 160V240 9999 SCT012 05/03 Q0999 GRN 21011KT 9999 BKN007 BECMG SCT010
  • 121125Z AUTO 20012KT 160V240 9999 SCT008 OVC010 04/03 Q1000 GRN 21011KT 9999 BKN007 BECMG SCT010
  • 121057Z AUTO 20012KT 160V240 9999 SCT008 BKN009 BKN010 04/03 Q1000 GRN 21011KT 9999 BKN007 BECMG SCT010
  • 121055Z AUTO 20011KT 160V240 9999 BKN008 BKN009 04/03 Q1000 GRN 21011KT 9999 BKN007 BECMG SCT010
  • 121037Z AUTO 21011KT 180V250 9999 SCT009 BKN010 04/03 Q1000 GRN 21011KT 9999 BKN007 BECMG SCT010
  • 121030Z AUTO 21013KT 180V250 9999 FEW008 SCT010 04/02 Q1001 GRN 21011KT 9999 BKN007 BECMG SCT010
  • 121025Z AUTO 21012KT 160V250 9999 SCT007 SCT008 04/03 Q1001 GRN 21011KT 9999 BKN007 BECMG SCT010

TAF TAF EHVK
Valid from the 12 at 10:00 until the 12 at 22:00 UTC


120945Z 1210/1222 21010KT 9999 FEW008
PROB40
TEMPO 1210/1212 SCT008
BECMG 1215/1218 16015G25KT SCT020
BECMG 1220/1222 -RA BKN015 OVC035



MET'MAP, your aeronautical weather chart ! - Copyright ORBIFLY December 2007 - Disclaimer

ORBIFLY MET'MAP TEAM :

Programming & Development : Alexandra Zaïnal
Concept & original design : Baudouin d'Aumeries
Assistance for programming : Marc-Olivier Méhu
Technical & hardware support : Manuel Goepfert

Contact : metmap@orbifly.com




SOURCES & CREDITS :

   NOAA